createdAt,value
2023-03-27T00:01:16.417Z,29.61
2023-03-27T00:05:16.323Z,31.84
2023-03-27T00:09:16.252Z,29.82
2023-03-27T00:13:16.234Z,30.45
2023-03-27T00:17:16.177Z,28.76
2023-03-27T00:21:16.155Z,30.26
2023-03-27T00:25:16.097Z,31.51
2023-03-27T00:29:16.068Z,29.10
2023-03-27T00:33:16.068Z,28.94
2023-03-27T00:37:16.046Z,28.32
2023-03-27T00:41:16.023Z,28.68
2023-03-27T00:45:16.200Z,29.53
2023-03-27T00:49:16.435Z,26.60
2023-03-27T00:53:16.324Z,27.31
2023-03-27T00:57:16.326Z,31.74
2023-03-27T01:01:16.341Z,29.81
2023-03-27T01:05:16.219Z,25.95
2023-03-27T01:09:20.714Z,29.19
2023-03-27T01:13:16.151Z,29.90
2023-03-27T01:17:16.146Z,29.53
2023-03-27T01:21:16.218Z,30.91
2023-03-27T01:25:16.469Z,29.52
2023-03-27T01:29:16.410Z,31.07
2023-03-27T01:33:16.384Z,29.83
2023-03-27T01:37:16.364Z,29.47
2023-03-27T01:41:16.363Z,28.51
2023-03-27T01:45:16.279Z,30.99
2023-03-27T01:49:16.249Z,29.02
2023-03-27T01:53:16.237Z,30.87
2023-03-27T01:57:16.370Z,26.84
2023-03-27T02:01:16.187Z,29.96
2023-03-27T02:05:16.177Z,30.20
2023-03-27T02:09:16.270Z,31.67
2023-03-27T02:13:16.242Z,31.34
2023-03-27T02:17:16.231Z,31.32
2023-03-27T02:21:16.157Z,29.91
2023-03-27T02:25:16.147Z,31.29
2023-03-27T02:29:16.094Z,33.45
2023-03-27T02:33:16.092Z,32.59
2023-03-27T02:37:16.016Z,26.52
2023-03-27T02:41:15.988Z,31.04
2023-03-27T02:45:15.941Z,31.67
2023-03-27T02:49:15.934Z,29.10
2023-03-27T02:53:16.047Z,31.85
2023-03-27T02:57:16.090Z,28.37
2023-03-27T03:01:16.014Z,31.35
2023-03-27T03:05:15.947Z,31.23
2023-03-27T03:09:15.937Z,29.40
2023-03-27T03:13:15.859Z,28.69
2023-03-27T03:17:15.864Z,30.19
2023-03-27T03:21:15.812Z,28.80
2023-03-27T03:25:15.800Z,27.76
2023-03-27T03:29:15.728Z,27.99
2023-03-27T03:33:15.719Z,27.44
2023-03-27T03:37:15.689Z,27.35
2023-03-27T03:41:15.635Z,28.73
2023-03-27T03:45:15.615Z,29.95
2023-03-27T03:49:15.584Z,28.45
2023-03-27T03:53:15.545Z,30.15
2023-03-27T03:57:15.686Z,30.56
2023-03-27T04:01:15.571Z,26.27
2023-03-27T04:05:15.420Z,30.68
2023-03-27T04:09:15.371Z,27.86
2023-03-27T04:13:15.371Z,31.05
2023-03-27T04:17:15.373Z,28.41
2023-03-27T04:21:15.378Z,30.97
2023-03-27T04:25:15.312Z,29.11
2023-03-27T04:29:15.258Z,31.11
2023-03-27T04:33:15.254Z,30.07
2023-03-27T04:37:15.250Z,29.08
2023-03-27T04:41:15.180Z,31.17
2023-03-27T04:45:15.170Z,30.50
2023-03-27T04:49:15.082Z,31.76
2023-03-27T04:53:15.077Z,30.37
2023-03-27T04:57:15.059Z,31.89
2023-03-27T05:01:15.009Z,32.43
2023-03-27T05:05:14.962Z,32.76
2023-03-27T05:09:14.941Z,26.41
2023-03-27T05:13:14.878Z,30.97
2023-03-27T05:17:14.869Z,27.69
2023-03-27T05:21:14.814Z,31.11
2023-03-27T05:25:14.796Z,26.49
2023-03-27T05:29:14.747Z,28.88
2023-03-27T05:33:14.741Z,32.08
2023-03-27T05:37:14.720Z,30.77
2023-03-27T05:41:15.018Z,32.23
2023-03-27T05:45:14.655Z,51.50
2023-03-27T05:49:14.953Z,75.22
2023-03-27T05:53:15.112Z,211.68
2023-03-27T05:57:15.022Z,102.29
2023-03-27T06:01:14.550Z,21.43
2023-03-27T06:05:14.528Z,110.58
2023-03-27T06:09:14.937Z,161.72
2023-03-27T06:13:14.451Z,200.83
2023-03-27T06:17:14.381Z,235.35
2023-03-27T06:21:14.384Z,250.00
2023-03-27T06:25:14.423Z,249.98
2023-03-27T06:29:14.645Z,207.01
2023-03-27T06:33:14.737Z,209.69
2023-03-27T06:37:14.961Z,117.28
2023-03-27T06:41:14.866Z,100.34
2023-03-27T06:45:15.493Z,163.75
2023-03-27T06:49:14.981Z,207.31
2023-03-27T06:53:25.921Z,235.12
2023-03-27T06:57:16.480Z,260.29
2023-03-27T07:01:15.266Z,250.00
2023-03-27T07:05:15.267Z,249.73
2023-03-27T07:09:15.485Z,250.00
2023-03-27T07:13:15.473Z,249.60
2023-03-27T07:17:15.233Z,245.22
2023-03-27T07:21:15.235Z,249.74
2023-03-27T07:25:15.273Z,247.91
2023-03-27T07:29:15.529Z,242.60
2023-03-27T07:33:15.387Z,243.32
2023-03-27T07:37:15.288Z,249.01
2023-03-27T07:41:15.501Z,250.04
2023-03-27T07:45:15.526Z,248.19
2023-03-27T07:49:15.477Z,244.71
2023-03-27T07:53:33.713Z,244.34
2023-03-27T07:57:16.625Z,243.74
2023-03-27T08:01:15.095Z,247.21
2023-03-27T08:05:15.084Z,249.18
2023-03-27T08:09:15.036Z,245.07
2023-03-27T08:13:15.004Z,243.14
2023-03-27T08:17:16.615Z,240.04
2023-03-27T08:21:15.037Z,240.16
2023-03-27T08:25:15.517Z,242.06
2023-03-27T08:29:15.492Z,244.77
2023-03-27T08:33:15.453Z,246.60
2023-03-27T08:37:15.554Z,250.00
2023-03-27T08:41:15.521Z,245.45
2023-03-27T08:45:15.518Z,230.59
2023-03-27T08:49:15.327Z,97.86
2023-03-27T08:53:15.497Z,78.57
2023-03-27T08:57:15.681Z,48.36
2023-03-27T09:01:15.270Z,25.52
2023-03-27T09:05:15.159Z,25.00
2023-03-27T09:09:15.555Z,30.60
2023-03-27T09:13:15.107Z,49.57
2023-03-27T09:17:15.087Z,67.92
2023-03-27T09:21:15.045Z,86.31
2023-03-27T09:25:14.975Z,98.21
2023-03-27T09:29:20.384Z,115.42
2023-03-27T09:33:15.943Z,120.18
2023-03-27T09:37:15.056Z,123.64
2023-03-27T09:41:15.083Z,125.06
2023-03-27T09:45:15.564Z,126.81
2023-03-27T09:49:16.062Z,70.11
2023-03-27T09:53:15.365Z,97.22
2023-03-27T09:57:15.584Z,31.73
2023-03-27T10:01:15.696Z,6.56
2023-03-27T10:05:16.064Z,24.20
2023-03-27T10:09:15.713Z,25.56
2023-03-27T10:13:15.655Z,25.20
2023-03-27T10:17:16.055Z,42.01
2023-03-27T10:21:15.582Z,31.81
2023-03-27T10:25:15.597Z,25.25
2023-03-27T10:29:15.506Z,69.22
2023-03-27T10:33:15.559Z,94.82
2023-03-27T10:37:15.591Z,107.47
2023-03-27T10:41:15.607Z,109.40
2023-03-27T10:45:16.381Z,114.97
2023-03-27T10:49:17.463Z,129.14
2023-03-27T10:53:15.660Z,133.58
2023-03-27T10:57:15.455Z,141.80
2023-03-27T11:01:15.456Z,147.39
2023-03-27T11:05:15.361Z,151.15
2023-03-27T11:09:15.635Z,155.50
2023-03-27T11:13:15.270Z,158.46
2023-03-27T11:17:15.575Z,161.81
2023-03-27T11:21:15.164Z,165.30
2023-03-27T11:25:15.627Z,167.73
2023-03-27T11:29:15.564Z,171.16
2023-03-27T11:33:15.596Z,175.69
2023-03-27T11:37:15.032Z,177.43
2023-03-27T11:41:15.551Z,171.98
2023-03-27T11:45:14.951Z,166.53
2023-03-27T11:49:14.973Z,160.75
2023-03-27T11:53:14.902Z,159.08
2023-03-27T11:57:15.112Z,156.87
2023-03-27T12:01:16.616Z,152.31
2023-03-27T12:05:14.839Z,155.21
2023-03-27T12:09:14.756Z,148.34
2023-03-27T12:13:14.736Z,144.40
2023-03-27T12:17:15.109Z,146.52
2023-03-27T12:21:15.108Z,136.40
2023-03-27T12:25:14.620Z,120.43
2023-03-27T12:29:23.374Z,131.83
2023-03-27T12:33:15.642Z,124.85
2023-03-27T12:37:14.594Z,121.84
2023-03-27T12:41:14.685Z,128.41
2023-03-27T12:45:14.695Z,116.85
2023-03-27T12:49:14.640Z,118.05
2023-03-27T12:53:14.577Z,116.21
2023-03-27T12:57:14.702Z,117.09
2023-03-27T13:01:14.497Z,120.06
2023-03-27T13:05:26.204Z,110.25
2023-03-27T13:09:15.459Z,105.83
2023-03-27T13:13:14.429Z,101.38
2023-03-27T13:17:14.384Z,89.04
2023-03-27T13:21:14.440Z,85.26
2023-03-27T13:25:14.492Z,103.04
2023-03-27T13:29:14.601Z,72.03
2023-03-27T13:33:14.779Z,65.54
2023-03-27T13:37:14.924Z,85.79
2023-03-27T13:41:15.062Z,95.51
2023-03-27T13:45:15.141Z,76.09
2023-03-27T13:49:15.312Z,32.82
2023-03-27T13:53:15.350Z,43.08
2023-03-27T13:57:15.332Z,60.24
2023-03-27T14:01:15.237Z,48.99
2023-03-27T14:05:15.225Z,29.08
2023-03-27T14:09:15.196Z,48.57
2023-03-27T14:13:15.675Z,48.26
2023-03-27T14:17:15.107Z,41.14
2023-03-27T14:21:19.702Z,34.91
2023-03-27T14:25:16.066Z,38.70
2023-03-27T14:29:15.010Z,19.42
2023-03-27T14:33:15.058Z,39.38
2023-03-27T14:37:15.125Z,41.41
2023-03-27T14:41:15.112Z,51.83
2023-03-27T14:45:15.036Z,62.22
2023-03-27T14:49:15.004Z,86.40
2023-03-27T14:53:14.979Z,86.24
2023-03-27T14:57:14.944Z,105.44
2023-03-27T15:01:14.947Z,105.02
2023-03-27T15:05:14.904Z,116.72
2023-03-27T15:09:14.843Z,113.30
2023-03-27T15:13:14.801Z,97.88
2023-03-27T15:17:14.777Z,85.09
2023-03-27T15:21:14.709Z,85.97
2023-03-27T15:25:14.695Z,89.35
2023-03-27T15:29:14.724Z,100.25
2023-03-27T15:33:14.891Z,98.24
2023-03-27T15:37:15.060Z,107.32
2023-03-27T15:41:15.261Z,101.23
2023-03-27T15:45:15.372Z,100.50
2023-03-27T15:49:15.469Z,105.72
2023-03-27T15:53:15.703Z,85.44
2023-03-27T15:57:15.900Z,100.64
2023-03-27T16:01:18.963Z,116.05
2023-03-27T16:05:15.999Z,124.31
2023-03-27T16:09:16.197Z,134.90
2023-03-27T16:13:15.911Z,122.57
2023-03-27T16:17:15.867Z,99.25
2023-03-27T16:21:15.874Z,100.23
2023-03-27T16:25:15.828Z,94.52
2023-03-27T16:29:15.777Z,106.28
2023-03-27T16:33:16.455Z,112.47
2023-03-27T16:37:15.945Z,122.98
2023-03-27T16:41:16.140Z,127.47
2023-03-27T16:45:16.330Z,109.81
2023-03-27T16:49:16.528Z,97.13
2023-03-27T16:53:16.659Z,79.58
2023-03-27T16:57:16.924Z,93.32
2023-03-27T17:01:16.898Z,72.66
2023-03-27T17:05:16.814Z,53.66
2023-03-27T17:09:16.761Z,54.83
2023-03-27T17:13:16.709Z,45.30
2023-03-27T17:17:16.692Z,43.54
2023-03-27T17:21:16.641Z,44.96
2023-03-27T17:25:16.599Z,61.47
2023-03-27T17:29:16.579Z,57.52
2023-03-27T17:33:16.550Z,44.52
2023-03-27T17:37:16.477Z,47.16
2023-03-27T17:41:16.437Z,65.33
2023-03-27T17:45:16.391Z,73.69
2023-03-27T17:49:16.377Z,55.77
2023-03-27T17:53:16.374Z,47.47
2023-03-27T17:57:16.705Z,47.25
2023-03-27T18:01:16.778Z,53.26
2023-03-27T18:05:16.940Z,47.56
2023-03-27T18:09:17.165Z,35.57
2023-03-27T18:13:17.134Z,38.33
2023-03-27T18:17:17.095Z,41.79
2023-03-27T18:21:17.088Z,49.63
2023-03-27T18:25:16.992Z,52.53
2023-03-27T18:29:16.974Z,50.14
2023-03-27T18:33:16.947Z,47.08
2023-03-27T18:37:16.894Z,39.97
2023-03-27T18:41:16.874Z,45.86
2023-03-27T18:45:16.850Z,37.48
2023-03-27T18:49:24.285Z,41.72
2023-03-27T18:53:17.772Z,52.59
2023-03-27T18:57:19.198Z,59.01
2023-03-27T19:01:16.768Z,54.90
2023-03-27T19:05:16.665Z,55.45
2023-03-27T19:09:16.624Z,47.07
2023-03-27T19:13:16.681Z,48.31
2023-03-27T19:17:16.582Z,43.18
2023-03-27T19:21:16.499Z,60.28
2023-03-27T19:25:16.476Z,48.26
2023-03-27T19:29:16.433Z,43.17
2023-03-27T19:33:16.376Z,41.23
2023-03-27T19:37:16.363Z,25.17
2023-03-27T19:41:16.350Z,24.89
2023-03-27T19:45:16.300Z,24.97
2023-03-27T19:49:16.364Z,32.24
2023-03-27T19:53:16.269Z,47.31
2023-03-27T19:57:16.253Z,35.86
2023-03-27T20:01:16.178Z,58.09
2023-03-27T20:05:16.096Z,42.16
2023-03-27T20:09:16.065Z,49.79
2023-03-27T20:13:16.045Z,63.47
2023-03-27T20:17:25.325Z,59.77
2023-03-27T20:21:17.004Z,61.17
2023-03-27T20:25:15.933Z,71.29
2023-03-27T20:29:15.924Z,70.57
2023-03-27T20:33:15.851Z,52.97
2023-03-27T20:37:15.829Z,40.14
2023-03-27T20:41:15.954Z,47.99
2023-03-27T20:45:16.075Z,57.74
2023-03-27T20:49:16.239Z,44.81
2023-03-27T20:53:16.372Z,45.79
2023-03-27T20:57:16.584Z,35.40
2023-03-27T21:01:16.792Z,40.58
2023-03-27T21:05:16.916Z,36.48
2023-03-27T21:09:17.077Z,38.82
2023-03-27T21:13:17.423Z,42.77
2023-03-27T21:17:17.415Z,53.29
2023-03-27T21:21:17.589Z,55.98
2023-03-27T21:25:17.711Z,59.33
2023-03-27T21:29:17.855Z,62.40
2023-03-27T21:33:17.945Z,59.92
2023-03-27T21:37:18.069Z,58.30
2023-03-27T21:41:18.150Z,55.65
2023-03-27T21:45:18.268Z,60.03
2023-03-27T21:49:18.411Z,60.33
2023-03-27T21:53:18.535Z,57.92
2023-03-27T21:57:18.705Z,57.33
2023-03-27T22:01:18.903Z,49.77
2023-03-27T22:05:18.978Z,48.11
2023-03-27T22:09:19.129Z,48.13
2023-03-27T22:13:19.325Z,47.04
2023-03-27T22:17:19.496Z,47.97
2023-03-27T22:21:19.664Z,55.85
2023-03-27T22:25:19.871Z,51.12
2023-03-27T22:29:20.003Z,45.56
2023-03-27T22:33:20.188Z,43.04
2023-03-27T22:37:20.329Z,47.00
2023-03-27T22:41:20.501Z,39.85
2023-03-27T22:45:20.714Z,32.98
2023-03-27T22:49:20.968Z,29.41
2023-03-27T22:53:20.957Z,30.99
2023-03-27T22:57:20.923Z,27.11
2023-03-27T23:01:20.825Z,29.02
2023-03-27T23:05:20.798Z,26.71
2023-03-27T23:09:20.755Z,35.94
2023-03-27T23:13:20.712Z,31.42
2023-03-27T23:17:20.706Z,34.65
2023-03-27T23:21:20.667Z,37.37
2023-03-27T23:25:20.625Z,36.01
2023-03-27T23:29:20.585Z,35.39
2023-03-27T23:33:20.552Z,48.86
2023-03-27T23:37:20.511Z,45.71
2023-03-27T23:41:20.468Z,41.84
2023-03-27T23:45:20.483Z,64.90
2023-03-27T23:49:20.388Z,51.20
2023-03-27T23:53:20.454Z,47.83
2023-03-27T23:57:20.550Z,53.16
